sensor_id;sensor_type;location;lat;lon;timestamp;temperature;humidity
17740;DHT22;8990;33.226;-97.150;2022-09-02T00:00:13;25.00;99.90
17740;DHT22;8990;33.226;-97.150;2022-09-02T00:02:43;25.00;99.90
17740;DHT22;8990;33.226;-97.150;2022-09-02T00:05:12;25.10;99.90
17740;DHT22;8990;33.226;-97.150;2022-09-02T00:07:41;25.10;99.90
17740;DHT22;8990;33.226;-97.150;2022-09-02T00:10:10;25.10;99.90
17740;DHT22;8990;33.226;-97.150;2022-09-02T00:12:40;25.10;99.90
17740;DHT22;8990;33.226;-97.150;2022-09-02T00:15:09;25.20;99.90
17740;DHT22;8990;33.226;-97.150;2022-09-02T00:17:41;25.20;99.90
17740;DHT22;8990;33.226;-97.150;2022-09-02T00:20:10;25.20;99.90
17740;DHT22;8990;33.226;-97.150;2022-09-02T00:22:40;25.20;99.90
17740;DHT22;8990;33.226;-97.150;2022-09-02T00:25:09;25.20;99.90
17740;DHT22;8990;33.226;-97.150;2022-09-02T00:27:39;25.20;99.90
17740;DHT22;8990;33.226;-97.150;2022-09-02T00:30:09;25.20;99.90
17740;DHT22;8990;33.226;-97.150;2022-09-02T00:32:40;25.10;99.90
17740;DHT22;8990;33.226;-97.150;2022-09-02T00:35:11;25.10;99.90
17740;DHT22;8990;33.226;-97.150;2022-09-02T00:37:40;25.10;99.90
17740;DHT22;8990;33.226;-97.150;2022-09-02T00:40:11;25.10;99.90
17740;DHT22;8990;33.226;-97.150;2022-09-02T00:42:41;25.10;99.90
17740;DHT22;8990;33.226;-97.150;2022-09-02T00:45:11;25.00;99.90
17740;DHT22;8990;33.226;-97.150;2022-09-02T00:47:43;25.00;99.90
17740;DHT22;8990;33.226;-97.150;2022-09-02T00:50:17;25.00;99.90
17740;DHT22;8990;33.226;-97.150;2022-09-02T00:52:49;25.00;99.90
17740;DHT22;8990;33.226;-97.150;2022-09-02T00:55:25;25.00;99.90
17740;DHT22;8990;33.226;-97.150;2022-09-02T00:57:57;25.00;99.90
17740;DHT22;8990;33.226;-97.150;2022-09-02T01:00:30;25.00;99.90
17740;DHT22;8990;33.226;-97.150;2022-09-02T01:03:04;25.00;99.90
17740;DHT22;8990;33.226;-97.150;2022-09-02T01:05:37;25.00;99.90
17740;DHT22;8990;33.226;-97.150;2022-09-02T01:08:08;25.00;99.90
17740;DHT22;8990;33.226;-97.150;2022-09-02T01:10:37;25.00;99.90
17740;DHT22;8990;33.226;-97.150;2022-09-02T01:13:08;24.90;99.90
17740;DHT22;8990;33.226;-97.150;2022-09-02T01:15:41;25.00;99.90
17740;DHT22;8990;33.226;-97.150;2022-09-02T01:18:15;24.90;99.90
17740;DHT22;8990;33.226;-97.150;2022-09-02T01:20:45;25.00;99.90
17740;DHT22;8990;33.226;-97.150;2022-09-02T01:23:17;25.00;99.90
17740;DHT22;8990;33.226;-97.150;2022-09-02T01:25:47;25.00;99.90
17740;DHT22;8990;33.226;-97.150;2022-09-02T01:28:17;25.00;99.90
17740;DHT22;8990;33.226;-97.150;2022-09-02T01:30:49;24.90;99.90
17740;DHT22;8990;33.226;-97.150;2022-09-02T01:33:19;24.90;99.90
17740;DHT22;8990;33.226;-97.150;2022-09-02T01:35:50;25.00;99.90
17740;DHT22;8990;33.226;-97.150;2022-09-02T01:38:22;25.00;99.90
17740;DHT22;8990;33.226;-97.150;2022-09-02T01:40:52;25.00;99.90
17740;DHT22;8990;33.226;-97.150;2022-09-02T01:43:23;24.90;99.90
17740;DHT22;8990;33.226;-97.150;2022-09-02T01:45:57;24.90;99.90
17740;DHT22;8990;33.226;-97.150;2022-09-02T01:48:29;24.90;99.90
17740;DHT22;8990;33.226;-97.150;2022-09-02T01:51:02;24.90;99.90
17740;DHT22;8990;33.226;-97.150;2022-09-02T01:53:33;24.80;99.90
17740;DHT22;8990;33.226;-97.150;2022-09-02T01:56:05;24.80;99.90
17740;DHT22;8990;33.226;-97.150;2022-09-02T01:58:35;24.80;99.90
17740;DHT22;8990;33.226;-97.150;2022-09-02T02:01:05;24.80;99.90
17740;DHT22;8990;33.226;-97.150;2022-09-02T02:03:35;24.70;99.90
17740;DHT22;8990;33.226;-97.150;2022-09-02T02:06:09;24.70;99.90
17740;DHT22;8990;33.226;-97.150;2022-09-02T02:08:42;24.70;99.90
17740;DHT22;8990;33.226;-97.150;2022-09-02T02:11:18;24.70;99.90
17740;DHT22;8990;33.226;-97.150;2022-09-02T02:13:51;24.70;99.90
17740;DHT22;8990;33.226;-97.150;2022-09-02T02:16:21;24.70;99.90
17740;DHT22;8990;33.226;-97.150;2022-09-02T02:18:52;24.70;99.90
17740;DHT22;8990;33.226;-97.150;2022-09-02T02:21:21;24.70;99.90
17740;DHT22;8990;33.226;-97.150;2022-09-02T02:23:53;24.70;99.90
17740;DHT22;8990;33.226;-97.150;2022-09-02T02:26:22;24.70;99.90
17740;DHT22;8990;33.226;-97.150;2022-09-02T02:28:52;24.70;99.90
17740;DHT22;8990;33.226;-97.150;2022-09-02T02:31:21;24.70;99.90
17740;DHT22;8990;33.226;-97.150;2022-09-02T02:33:52;24.70;99.90
17740;DHT22;8990;33.226;-97.150;2022-09-02T02:36:21;24.70;99.90
17740;DHT22;8990;33.226;-97.150;2022-09-02T02:38:54;24.70;99.90
17740;DHT22;8990;33.226;-97.150;2022-09-02T02:41:24;24.60;99.90
17740;DHT22;8990;33.226;-97.150;2022-09-02T02:43:54;24.60;99.90
17740;DHT22;8990;33.226;-97.150;2022-09-02T02:46:23;24.50;99.90
17740;DHT22;8990;33.226;-97.150;2022-09-02T02:48:52;24.50;99.90
17740;DHT22;8990;33.226;-97.150;2022-09-02T02:51:21;24.50;99.90
17740;DHT22;8990;33.226;-97.150;2022-09-02T02:53:53;24.50;99.90
17740;DHT22;8990;33.226;-97.150;2022-09-02T02:56:22;24.50;99.90
17740;DHT22;8990;33.226;-97.150;2022-09-02T02:58:53;24.50;99.90
17740;DHT22;8990;33.226;-97.150;2022-09-02T03:01:22;24.50;99.90
17740;DHT22;8990;33.226;-97.150;2022-09-02T03:03:53;24.50;99.90
17740;DHT22;8990;33.226;-97.150;2022-09-02T03:06:23;24.50;99.90
17740;DHT22;8990;33.226;-97.150;2022-09-02T03:08:54;24.50;99.90
17740;DHT22;8990;33.226;-97.150;2022-09-02T03:11:24;24.50;99.90
17740;DHT22;8990;33.226;-97.150;2022-09-02T03:13:55;24.50;99.90
17740;DHT22;8990;33.226;-97.150;2022-09-02T03:16:25;24.40;99.90
17740;DHT22;8990;33.226;-97.150;2022-09-02T03:18:55;24.40;99.90
17740;DHT22;8990;33.226;-97.150;2022-09-02T03:21:24;24.40;99.90
17740;DHT22;8990;33.226;-97.150;2022-09-02T03:23:56;24.40;99.90
17740;DHT22;8990;33.226;-97.150;2022-09-02T03:26:26;24.40;99.90
17740;DHT22;8990;33.226;-97.150;2022-09-02T03:28:56;24.30;99.90
17740;DHT22;8990;33.226;-97.150;2022-09-02T03:31:26;24.30;99.90
17740;DHT22;8990;33.226;-97.150;2022-09-02T03:33:56;24.30;99.90
17740;DHT22;8990;33.226;-97.150;2022-09-02T03:36:29;24.30;99.90
17740;DHT22;8990;33.226;-97.150;2022-09-02T03:39:02;24.30;99.90
17740;DHT22;8990;33.226;-97.150;2022-09-02T03:41:32;24.30;99.90
17740;DHT22;8990;33.226;-97.150;2022-09-02T03:44:03;24.20;99.90
17740;DHT22;8990;33.226;-97.150;2022-09-02T03:46:33;24.30;99.90
17740;DHT22;8990;33.226;-97.150;2022-09-02T03:49:03;24.30;99.90
17740;DHT22;8990;33.226;-97.150;2022-09-02T03:51:33;24.30;99.90
17740;DHT22;8990;33.226;-97.150;2022-09-02T03:54:04;24.30;99.90
17740;DHT22;8990;33.226;-97.150;2022-09-02T03:56:34;24.30;99.90
17740;DHT22;8990;33.226;-97.150;2022-09-02T03:59:05;24.30;99.90
17740;DHT22;8990;33.226;-97.150;2022-09-02T04:01:35;24.30;99.90
17740;DHT22;8990;33.226;-97.150;2022-09-02T04:04:05;24.30;99.90
17740;DHT22;8990;33.226;-97.150;2022-09-02T04:06:38;24.30;99.90
17740;DHT22;8990;33.226;-97.150;2022-09-02T04:09:09;24.30;99.90
17740;DHT22;8990;33.226;-97.150;2022-09-02T04:11:40;24.30;99.90
17740;DHT22;8990;33.226;-97.150;2022-09-02T04:14:12;24.30;99.90
17740;DHT22;8990;33.226;-97.150;2022-09-02T04:16:41;24.30;99.90
17740;DHT22;8990;33.226;-97.150;2022-09-02T04:19:10;24.30;99.90
17740;DHT22;8990;33.226;-97.150;2022-09-02T04:21:42;24.30;99.90
17740;DHT22;8990;33.226;-97.150;2022-09-02T04:24:14;24.30;99.90
17740;DHT22;8990;33.226;-97.150;2022-09-02T04:26:47;24.30;99.90
17740;DHT22;8990;33.226;-97.150;2022-09-02T04:29:18;24.40;99.90
17740;DHT22;8990;33.226;-97.150;2022-09-02T04:31:50;24.30;99.90
17740;DHT22;8990;33.226;-97.150;2022-09-02T04:34:22;24.30;99.90
17740;DHT22;8990;33.226;-97.150;2022-09-02T04:36:52;24.30;99.90
17740;DHT22;8990;33.226;-97.150;2022-09-02T04:39:24;24.30;99.90
17740;DHT22;8990;33.226;-97.150;2022-09-02T04:41:53;24.30;99.90
17740;DHT22;8990;33.226;-97.150;2022-09-02T04:44:24;24.30;99.90
17740;DHT22;8990;33.226;-97.150;2022-09-02T04:46:53;24.30;99.90
17740;DHT22;8990;33.226;-97.150;2022-09-02T04:49:23;24.30;99.90
17740;DHT22;8990;33.226;-97.150;2022-09-02T04:51:54;24.30;99.90
17740;DHT22;8990;33.226;-97.150;2022-09-02T04:54:26;24.30;99.90
17740;DHT22;8990;33.226;-97.150;2022-09-02T04:56:59;24.30;99.90
17740;DHT22;8990;33.226;-97.150;2022-09-02T04:59:29;24.30;99.90
17740;DHT22;8990;33.226;-97.150;2022-09-02T05:02:06;24.20;99.90
17740;DHT22;8990;33.226;-97.150;2022-09-02T05:04:36;24.30;99.90
17740;DHT22;8990;33.226;-97.150;2022-09-02T05:07:10;24.20;99.90
17740;DHT22;8990;33.226;-97.150;2022-09-02T05:09:45;24.30;99.90
17740;DHT22;8990;33.226;-97.150;2022-09-02T05:12:15;24.30;99.90
17740;DHT22;8990;33.226;-97.150;2022-09-02T05:14:50;24.20;99.90
17740;DHT22;8990;33.226;-97.150;2022-09-02T05:17:22;24.20;99.90
17740;DHT22;8990;33.226;-97.150;2022-09-02T05:19:54;24.20;99.90
17740;DHT22;8990;33.226;-97.150;2022-09-02T05:22:23;24.20;99.90
17740;DHT22;8990;33.226;-97.150;2022-09-02T05:24:59;24.20;99.90
17740;DHT22;8990;33.226;-97.150;2022-09-02T05:27:29;24.20;99.90
17740;DHT22;8990;33.226;-97.150;2022-09-02T05:30:00;24.20;99.90
17740;DHT22;8990;33.226;-97.150;2022-09-02T05:32:32;24.20;99.90
17740;DHT22;8990;33.226;-97.150;2022-09-02T05:35:01;24.10;99.90
17740;DHT22;8990;33.226;-97.150;2022-09-02T05:37:32;24.10;99.90
17740;DHT22;8990;33.226;-97.150;2022-09-02T05:40:04;24.10;99.90
17740;DHT22;8990;33.226;-97.150;2022-09-02T05:42:37;24.10;99.90
17740;DHT22;8990;33.226;-97.150;2022-09-02T05:45:07;24.10;99.90
17740;DHT22;8990;33.226;-97.150;2022-09-02T05:47:37;24.10;99.90
17740;DHT22;8990;33.226;-97.150;2022-09-02T05:50:06;24.10;99.90
17740;DHT22;8990;33.226;-97.150;2022-09-02T05:52:36;24.00;99.90
17740;DHT22;8990;33.226;-97.150;2022-09-02T05:55:08;24.00;99.90
17740;DHT22;8990;33.226;-97.150;2022-09-02T05:57:38;23.90;99.90
17740;DHT22;8990;33.226;-97.150;2022-09-02T06:00:10;23.90;99.90
17740;DHT22;8990;33.226;-97.150;2022-09-02T06:02:41;23.90;99.90
17740;DHT22;8990;33.226;-97.150;2022-09-02T06:05:19;23.90;99.90
17740;DHT22;8990;33.226;-97.150;2022-09-02T06:07:56;23.90;99.90
17740;DHT22;8990;33.226;-97.150;2022-09-02T06:10:27;23.90;99.90
17740;DHT22;8990;33.226;-97.150;2022-09-02T06:12:56;23.90;99.90
17740;DHT22;8990;33.226;-97.150;2022-09-02T06:15:28;23.90;99.90
17740;DHT22;8990;33.226;-97.150;2022-09-02T06:18:00;23.90;99.90
17740;DHT22;8990;33.226;-97.150;2022-09-02T06:20:31;23.80;99.90
17740;DHT22;8990;33.226;-97.150;2022-09-02T06:23:02;23.80;99.90
17740;DHT22;8990;33.226;-97.150;2022-09-02T06:25:35;23.80;99.90
17740;DHT22;8990;33.226;-97.150;2022-09-02T06:28:06;23.80;99.90
17740;DHT22;8990;33.226;-97.150;2022-09-02T06:30:40;23.80;99.90
17740;DHT22;8990;33.226;-97.150;2022-09-02T06:33:10;23.80;99.90
17740;DHT22;8990;33.226;-97.150;2022-09-02T06:35:44;23.80;99.90
17740;DHT22;8990;33.226;-97.150;2022-09-02T06:38:15;23.80;99.90
17740;DHT22;8990;33.226;-97.150;2022-09-02T06:40:50;23.80;99.90
17740;DHT22;8990;33.226;-97.150;2022-09-02T06:43:39;23.80;99.90
17740;DHT22;8990;33.226;-97.150;2022-09-02T06:46:31;23.80;99.90
17740;DHT22;8990;33.226;-97.150;2022-09-02T06:49:04;23.80;99.90
17740;DHT22;8990;33.226;-97.150;2022-09-02T06:51:36;23.90;99.90
17740;DHT22;8990;33.226;-97.150;2022-09-02T06:54:08;23.90;99.90
17740;DHT22;8990;33.226;-97.150;2022-09-02T06:56:42;23.90;99.90
17740;DHT22;8990;33.226;-97.150;2022-09-02T06:59:11;23.90;99.90
17740;DHT22;8990;33.226;-97.150;2022-09-02T07:01:42;23.90;99.90
17740;DHT22;8990;33.226;-97.150;2022-09-02T07:04:15;23.90;99.90
17740;DHT22;8990;33.226;-97.150;2022-09-02T07:07:04;23.80;99.90
17740;DHT22;8990;33.226;-97.150;2022-09-02T07:09:40;23.90;99.90
17740;DHT22;8990;33.226;-97.150;2022-09-02T07:12:16;23.90;99.90
17740;DHT22;8990;33.226;-97.150;2022-09-02T07:14:51;23.90;99.90
17740;DHT22;8990;33.226;-97.150;2022-09-02T07:17:34;23.90;99.90
17740;DHT22;8990;33.226;-97.150;2022-09-02T07:20:07;23.90;99.90
17740;DHT22;8990;33.226;-97.150;2022-09-02T07:22:42;23.90;99.90
17740;DHT22;8990;33.226;-97.150;2022-09-02T07:25:15;23.80;99.90
17740;DHT22;8990;33.226;-97.150;2022-09-02T07:27:49;23.80;99.90
17740;DHT22;8990;33.226;-97.150;2022-09-02T07:30:18;23.80;99.90
17740;DHT22;8990;33.226;-97.150;2022-09-02T07:32:53;23.80;99.90
17740;DHT22;8990;33.226;-97.150;2022-09-02T07:35:25;23.80;99.90
17740;DHT22;8990;33.226;-97.150;2022-09-02T07:37:55;23.80;99.90
17740;DHT22;8990;33.226;-97.150;2022-09-02T07:40:26;23.80;99.90
17740;DHT22;8990;33.226;-97.150;2022-09-02T07:42:58;23.80;99.90
17740;DHT22;8990;33.226;-97.150;2022-09-02T07:45:28;23.70;99.90
17740;DHT22;8990;33.226;-97.150;2022-09-02T07:47:58;23.70;99.90
17740;DHT22;8990;33.226;-97.150;2022-09-02T07:50:28;23.70;99.90
17740;DHT22;8990;33.226;-97.150;2022-09-02T07:52:59;23.70;99.90
17740;DHT22;8990;33.226;-97.150;2022-09-02T07:55:36;23.70;99.90
17740;DHT22;8990;33.226;-97.150;2022-09-02T07:58:09;23.70;99.90
17740;DHT22;8990;33.226;-97.150;2022-09-02T08:00:39;23.70;99.90
17740;DHT22;8990;33.226;-97.150;2022-09-02T08:03:11;23.70;99.90
17740;DHT22;8990;33.226;-97.150;2022-09-02T08:05:49;23.70;99.90
17740;DHT22;8990;33.226;-97.150;2022-09-02T08:08:20;23.60;99.90
17740;DHT22;8990;33.226;-97.150;2022-09-02T08:10:50;23.70;99.90
17740;DHT22;8990;33.226;-97.150;2022-09-02T08:13:22;23.60;99.90
17740;DHT22;8990;33.226;-97.150;2022-09-02T08:15:52;23.70;99.90
17740;DHT22;8990;33.226;-97.150;2022-09-02T08:18:21;23.60;99.90
17740;DHT22;8990;33.226;-97.150;2022-09-02T08:20:50;23.70;99.90
17740;DHT22;8990;33.226;-97.150;2022-09-02T08:23:20;23.70;99.90
17740;DHT22;8990;33.226;-97.150;2022-09-02T08:25:50;23.60;99.90
17740;DHT22;8990;33.226;-97.150;2022-09-02T08:28:21;23.60;99.90
17740;DHT22;8990;33.226;-97.150;2022-09-02T08:30:50;23.60;99.90
17740;DHT22;8990;33.226;-97.150;2022-09-02T08:33:20;23.60;99.90
17740;DHT22;8990;33.226;-97.150;2022-09-02T08:35:50;23.60;99.90
17740;DHT22;8990;33.226;-97.150;2022-09-02T08:38:20;23.60;99.90
17740;DHT22;8990;33.226;-97.150;2022-09-02T08:40:50;23.50;99.90
17740;DHT22;8990;33.226;-97.150;2022-09-02T08:43:27;23.60;99.90
17740;DHT22;8990;33.226;-97.150;2022-09-02T08:46:01;23.60;99.90
17740;DHT22;8990;33.226;-97.150;2022-09-02T08:48:36;23.60;99.90
17740;DHT22;8990;33.226;-97.150;2022-09-02T08:51:09;23.60;99.90
17740;DHT22;8990;33.226;-97.150;2022-09-02T08:53:45;23.70;99.90
17740;DHT22;8990;33.226;-97.150;2022-09-02T08:56:17;23.70;99.90
17740;DHT22;8990;33.226;-97.150;2022-09-02T08:58:50;23.60;99.90
17740;DHT22;8990;33.226;-97.150;2022-09-02T09:01:27;23.60;99.90
17740;DHT22;8990;33.226;-97.150;2022-09-02T09:04:16;23.60;99.90
17740;DHT22;8990;33.226;-97.150;2022-09-02T09:09:59;23.70;99.90
17740;DHT22;8990;33.226;-97.150;2022-09-02T09:12:41;23.60;99.90
17740;DHT22;8990;33.226;-97.150;2022-09-02T09:15:21;23.60;99.90
17740;DHT22;8990;33.226;-97.150;2022-09-02T09:17:55;23.60;99.90
17740;DHT22;8990;33.226;-97.150;2022-09-02T09:20:27;23.60;99.90
17740;DHT22;8990;33.226;-97.150;2022-09-02T09:22:58;23.60;99.90
17740;DHT22;8990;33.226;-97.150;2022-09-02T09:25:29;23.60;99.90
17740;DHT22;8990;33.226;-97.150;2022-09-02T09:27:58;23.50;99.90
17740;DHT22;8990;33.226;-97.150;2022-09-02T09:30:30;23.50;99.90
17740;DHT22;8990;33.226;-97.150;2022-09-02T09:33:00;23.50;99.90
17740;DHT22;8990;33.226;-97.150;2022-09-02T09:35:47;23.50;99.90
17740;DHT22;8990;33.226;-97.150;2022-09-02T09:38:28;23.50;99.90
17740;DHT22;8990;33.226;-97.150;2022-09-02T09:41:15;23.50;99.90
17740;DHT22;8990;33.226;-97.150;2022-09-02T09:43:47;23.50;99.90
17740;DHT22;8990;33.226;-97.150;2022-09-02T09:46:28;23.50;99.90
17740;DHT22;8990;33.226;-97.150;2022-09-02T09:48:58;23.40;99.90
17740;DHT22;8990;33.226;-97.150;2022-09-02T09:51:27;23.50;99.90
17740;DHT22;8990;33.226;-97.150;2022-09-02T09:54:14;23.40;99.90
17740;DHT22;8990;33.226;-97.150;2022-09-02T09:56:44;23.40;99.90
17740;DHT22;8990;33.226;-97.150;2022-09-02T09:59:39;23.40;99.90
17740;DHT22;8990;33.226;-97.150;2022-09-02T10:02:19;23.30;99.90
17740;DHT22;8990;33.226;-97.150;2022-09-02T10:04:49;23.40;99.90
17740;DHT22;8990;33.226;-97.150;2022-09-02T10:07:37;23.30;99.90
17740;DHT22;8990;33.226;-97.150;2022-09-02T10:10:17;23.40;99.90
17740;DHT22;8990;33.226;-97.150;2022-09-02T10:12:48;23.30;99.90
17740;DHT22;8990;33.226;-97.150;2022-09-02T10:15:24;23.30;99.90
17740;DHT22;8990;33.226;-97.150;2022-09-02T10:18:03;23.30;99.90
17740;DHT22;8990;33.226;-97.150;2022-09-02T10:20:47;23.30;99.90
17740;DHT22;8990;33.226;-97.150;2022-09-02T10:23:25;23.30;99.90
17740;DHT22;8990;33.226;-97.150;2022-09-02T10:26:05;23.20;99.90
17740;DHT22;8990;33.226;-97.150;2022-09-02T10:29:13;23.20;99.90
17740;DHT22;8990;33.226;-97.150;2022-09-02T10:31:54;23.20;99.90
17740;DHT22;8990;33.226;-97.150;2022-09-02T10:34:36;23.20;99.90
17740;DHT22;8990;33.226;-97.150;2022-09-02T10:37:17;23.20;99.90
17740;DHT22;8990;33.226;-97.150;2022-09-02T10:40:03;23.20;99.90
17740;DHT22;8990;33.226;-97.150;2022-09-02T10:42:41;23.10;99.90
17740;DHT22;8990;33.226;-97.150;2022-09-02T10:45:27;23.10;99.90
17740;DHT22;8990;33.226;-97.150;2022-09-02T10:48:16;23.10;99.90
17740;DHT22;8990;33.226;-97.150;2022-09-02T10:50:52;23.20;99.90
17740;DHT22;8990;33.226;-97.150;2022-09-02T10:53:33;23.20;99.90
17740;DHT22;8990;33.226;-97.150;2022-09-02T10:56:08;23.20;99.90
17740;DHT22;8990;33.226;-97.150;2022-09-02T10:58:46;23.20;99.90
17740;DHT22;8990;33.226;-97.150;2022-09-02T11:01:22;23.20;99.90
17740;DHT22;8990;33.226;-97.150;2022-09-02T11:04:02;23.20;99.90
17740;DHT22;8990;33.226;-97.150;2022-09-02T11:06:37;23.20;99.90
17740;DHT22;8990;33.226;-97.150;2022-09-02T11:09:11;23.10;99.90
17740;DHT22;8990;33.226;-97.150;2022-09-02T11:11:46;23.10;99.90
17740;DHT22;8990;33.226;-97.150;2022-09-02T11:14:21;23.20;99.90
17740;DHT22;8990;33.226;-97.150;2022-09-02T11:16:57;23.20;99.90
17740;DHT22;8990;33.226;-97.150;2022-09-02T11:19:34;23.20;99.90
17740;DHT22;8990;33.226;-97.150;2022-09-02T11:22:12;23.20;99.90
17740;DHT22;8990;33.226;-97.150;2022-09-02T11:24:50;23.20;99.90
17740;DHT22;8990;33.226;-97.150;2022-09-02T11:27:28;23.20;99.90
17740;DHT22;8990;33.226;-97.150;2022-09-02T11:30:03;23.20;99.90
17740;DHT22;8990;33.226;-97.150;2022-09-02T11:32:38;23.20;99.90
17740;DHT22;8990;33.226;-97.150;2022-09-02T11:35:13;23.20;99.90
17740;DHT22;8990;33.226;-97.150;2022-09-02T11:37:48;23.10;99.90
17740;DHT22;8990;33.226;-97.150;2022-09-02T11:40:25;23.10;99.90
17740;DHT22;8990;33.226;-97.150;2022-09-02T11:43:06;23.10;99.90
17740;DHT22;8990;33.226;-97.150;2022-09-02T11:45:56;23.10;99.90
17740;DHT22;8990;33.226;-97.150;2022-09-02T11:48:47;23.10;99.90
17740;DHT22;8990;33.226;-97.150;2022-09-02T11:51:40;23.10;99.90
17740;DHT22;8990;33.226;-97.150;2022-09-02T11:54:16;23.00;99.90
17740;DHT22;8990;33.226;-97.150;2022-09-02T11:56:48;23.10;99.90
17740;DHT22;8990;33.226;-97.150;2022-09-02T11:59:21;23.10;99.90
17740;DHT22;8990;33.226;-97.150;2022-09-02T12:01:53;23.10;99.90
17740;DHT22;8990;33.226;-97.150;2022-09-02T12:04:23;23.10;99.90
17740;DHT22;8990;33.226;-97.150;2022-09-02T12:07:21;23.00;99.90
17740;DHT22;8990;33.226;-97.150;2022-09-02T12:09:55;23.00;99.90
17740;DHT22;8990;33.226;-97.150;2022-09-02T12:15:35;23.00;99.90
17740;DHT22;8990;33.226;-97.150;2022-09-02T12:18:13;23.00;99.90
17740;DHT22;8990;33.226;-97.150;2022-09-02T12:21:06;23.10;99.90
17740;DHT22;8990;33.226;-97.150;2022-09-02T12:24:02;23.10;99.90
17740;DHT22;8990;33.226;-97.150;2022-09-02T12:29:36;23.10;99.90
17740;DHT22;8990;33.226;-97.150;2022-09-02T12:32:06;23.20;99.90
17740;DHT22;8990;33.226;-97.150;2022-09-02T12:35:07;23.10;99.90
17740;DHT22;8990;33.226;-97.150;2022-09-02T12:37:55;23.20;99.90
17740;DHT22;8990;33.226;-97.150;2022-09-02T12:40:29;23.20;99.90
17740;DHT22;8990;33.226;-97.150;2022-09-02T12:43:03;23.30;99.90
17740;DHT22;8990;33.226;-97.150;2022-09-02T12:45:40;23.30;99.90
17740;DHT22;8990;33.226;-97.150;2022-09-02T12:48:14;23.30;99.90
17740;DHT22;8990;33.226;-97.150;2022-09-02T12:50:52;23.40;99.90
17740;DHT22;8990;33.226;-97.150;2022-09-02T12:53:31;23.40;99.90
17740;DHT22;8990;33.226;-97.150;2022-09-02T12:56:03;23.50;99.90
17740;DHT22;8990;33.226;-97.150;2022-09-02T12:58:37;23.50;99.90
17740;DHT22;8990;33.226;-97.150;2022-09-02T13:01:16;23.50;99.90
17740;DHT22;8990;33.226;-97.150;2022-09-02T13:04:06;23.70;99.90
17740;DHT22;8990;33.226;-97.150;2022-09-02T13:07:03;23.80;99.90
17740;DHT22;8990;33.226;-97.150;2022-09-02T13:09:53;23.90;99.90
17740;DHT22;8990;33.226;-97.150;2022-09-02T13:15:55;24.00;99.90
17740;DHT22;8990;33.226;-97.150;2022-09-02T13:18:48;24.10;99.90
17740;DHT22;8990;33.226;-97.150;2022-09-02T13:21:34;24.20;99.90
17740;DHT22;8990;33.226;-97.150;2022-09-02T13:24:35;24.30;99.90
17740;DHT22;8990;33.226;-97.150;2022-09-02T13:27:53;24.40;99.90
17740;DHT22;8990;33.226;-97.150;2022-09-02T13:30:27;24.60;99.90
17740;DHT22;8990;33.226;-97.150;2022-09-02T13:33:06;24.70;99.90
17740;DHT22;8990;33.226;-97.150;2022-09-02T13:35:40;24.90;99.90
17740;DHT22;8990;33.226;-97.150;2022-09-02T13:38:11;25.00;99.90
17740;DHT22;8990;33.226;-97.150;2022-09-02T13:40:43;25.10;99.90
17740;DHT22;8990;33.226;-97.150;2022-09-02T13:43:17;25.20;99.90
17740;DHT22;8990;33.226;-97.150;2022-09-02T13:45:48;25.30;99.90
17740;DHT22;8990;33.226;-97.150;2022-09-02T13:48:19;25.40;99.90
17740;DHT22;8990;33.226;-97.150;2022-09-02T13:50:51;25.50;99.90
17740;DHT22;8990;33.226;-97.150;2022-09-02T13:53:25;25.60;99.90
17740;DHT22;8990;33.226;-97.150;2022-09-02T13:55:56;25.70;99.90
17740;DHT22;8990;33.226;-97.150;2022-09-02T13:58:37;25.80;99.90
17740;DHT22;8990;33.226;-97.150;2022-09-02T14:01:21;25.90;99.90
17740;DHT22;8990;33.226;-97.150;2022-09-02T14:03:52;25.90;99.90
17740;DHT22;8990;33.226;-97.150;2022-09-02T14:06:27;25.80;99.90
17740;DHT22;8990;33.226;-97.150;2022-09-02T14:08:59;25.80;99.90
17740;DHT22;8990;33.226;-97.150;2022-09-02T14:11:35;25.70;99.90
17740;DHT22;8990;33.226;-97.150;2022-09-02T14:14:06;25.70;99.90
17740;DHT22;8990;33.226;-97.150;2022-09-02T14:16:37;25.60;99.90
17740;DHT22;8990;33.226;-97.150;2022-09-02T14:19:10;25.50;99.90
17740;DHT22;8990;33.226;-97.150;2022-09-02T14:21:47;25.20;99.90
17740;DHT22;8990;33.226;-97.150;2022-09-02T14:24:20;25.20;99.90
17740;DHT22;8990;33.226;-97.150;2022-09-02T14:26:51;25.20;99.90
17740;DHT22;8990;33.226;-97.150;2022-09-02T14:29:22;25.30;99.90
17740;DHT22;8990;33.226;-97.150;2022-09-02T14:32:11;25.50;99.90
17740;DHT22;8990;33.226;-97.150;2022-09-02T14:34:42;25.70;99.90
17740;DHT22;8990;33.226;-97.150;2022-09-02T14:37:22;25.80;99.90
17740;DHT22;8990;33.226;-97.150;2022-09-02T14:40:07;26.10;99.90
17740;DHT22;8990;33.226;-97.150;2022-09-02T14:42:45;26.20;99.90
17740;DHT22;8990;33.226;-97.150;2022-09-02T14:45:24;26.40;99.90
17740;DHT22;8990;33.226;-97.150;2022-09-02T14:47:55;26.50;99.90
17740;DHT22;8990;33.226;-97.150;2022-09-02T14:50:27;26.70;99.90
17740;DHT22;8990;33.226;-97.150;2022-09-02T14:53:02;26.90;99.90
17740;DHT22;8990;33.226;-97.150;2022-09-02T14:55:47;27.00;99.90
17740;DHT22;8990;33.226;-97.150;2022-09-02T14:58:19;27.10;99.90
17740;DHT22;8990;33.226;-97.150;2022-09-02T15:00:50;27.20;99.90
17740;DHT22;8990;33.226;-97.150;2022-09-02T15:03:22;27.20;99.90
17740;DHT22;8990;33.226;-97.150;2022-09-02T15:05:51;27.20;99.90
17740;DHT22;8990;33.226;-97.150;2022-09-02T15:08:23;27.20;99.90
17740;DHT22;8990;33.226;-97.150;2022-09-02T15:10:53;27.40;99.90
17740;DHT22;8990;33.226;-97.150;2022-09-02T15:13:28;27.60;99.90
17740;DHT22;8990;33.226;-97.150;2022-09-02T15:16:00;27.70;99.90
17740;DHT22;8990;33.226;-97.150;2022-09-02T15:18:29;27.70;99.90
17740;DHT22;8990;33.226;-97.150;2022-09-02T15:20:58;27.60;99.90
17740;DHT22;8990;33.226;-97.150;2022-09-02T15:23:30;27.50;99.90
17740;DHT22;8990;33.226;-97.150;2022-09-02T15:26:00;27.50;99.90
17740;DHT22;8990;33.226;-97.150;2022-09-02T15:28:29;27.50;99.90
17740;DHT22;8990;33.226;-97.150;2022-09-02T15:30:59;27.70;99.90
17740;DHT22;8990;33.226;-97.150;2022-09-02T15:33:29;27.70;99.90
17740;DHT22;8990;33.226;-97.150;2022-09-02T15:36:05;27.70;99.90
17740;DHT22;8990;33.226;-97.150;2022-09-02T15:38:37;27.60;99.90
17740;DHT22;8990;33.226;-97.150;2022-09-02T15:41:13;27.50;99.90
17740;DHT22;8990;33.226;-97.150;2022-09-02T15:43:44;27.30;99.90
17740;DHT22;8990;33.226;-97.150;2022-09-02T15:46:23;27.20;99.90
17740;DHT22;8990;33.226;-97.150;2022-09-02T15:48:53;27.20;99.90
17740;DHT22;8990;33.226;-97.150;2022-09-02T15:51:24;27.20;99.90
17740;DHT22;8990;33.226;-97.150;2022-09-02T15:53:56;27.30;99.90
17740;DHT22;8990;33.226;-97.150;2022-09-02T15:56:26;27.50;99.90
17740;DHT22;8990;33.226;-97.150;2022-09-02T15:58:57;27.60;99.90
17740;DHT22;8990;33.226;-97.150;2022-09-02T16:01:29;27.80;99.90
17740;DHT22;8990;33.226;-97.150;2022-09-02T16:03:59;27.80;99.90
17740;DHT22;8990;33.226;-97.150;2022-09-02T16:06:30;27.70;99.90
17740;DHT22;8990;33.226;-97.150;2022-09-02T16:09:02;27.80;99.90